Hhl Rio De Janeiro — D5AU2 — position and weather

sailwx.info

Track history (hours):
 
Tides and Currents Weather Stations Pressure Air Temp Water Temp Dewpoint Dewpoint Depression Visibility Wind Speed Wind Dir Waves Ship Positions

Hhl Rio De Janeiro

Last reported at 2016-Feb-08 20:08 UTC. Time now 2016-Feb-11 04:33 UTC.
Position N 57°13' E 017°38'.

Length 168 m; draft 8.2 m.

Type: Cargo ship. MMSI: 636092346.

Date/timePositionNaut miles runAvg speedWind from/ knotsBaromVisibWave heightAir tempDewpointWater temp
2016-Feb-08 20:08N 57°13' E 017°38'11911.3
2016-Feb-08 09:33N 55°40' E 015°24'1212.3
2016-Feb-08 08:33N 55°34' E 015°05'1212.2
2016-Feb-08 07:33N 55°27' E 014°47'1212.2
2016-Feb-08 06:34N 55°18' E 014°32'1212.4
2016-Feb-08 05:34N 55°09' E 014°18'1211.8
2016-Feb-08 04:33N 55°00' E 014°04'1211.7
2016-Feb-08 03:33N 54°57' E 013°45'1312.6
2016-Feb-08 02:33N 54°52' E 013°24'2611.6
2016-Feb-08 00:18N 54°44' E 012°41'1212.2
2016-Feb-07 23:20N 54°37' E 012°24'911.5
2016-Feb-07 22:33N 54°30' E 012°15'1110.8
2016-Feb-07 21:33N 54°25' E 011°59'1211.9
2016-Feb-07 20:33N 54°27' E 011°39'1212.0
2016-Feb-07 19:33N 54°32' E 011°21'1111.3
2016-Feb-07 18:33N 54°35' E 011°02'1211.9
2016-Feb-07 17:33N 54°34' E 010°41'1010.4
2016-Feb-07 16:34N 54°31' E 010°24'1010.2
2016-Feb-07 15:33N 54°24' E 010°12'3 2.7
2016-Feb-07 14:33N 54°22' E 010°08'0 0.3
2016-Feb-07 13:33N 54°22' E 010°08'6 6.5
2016-Feb-07 12:33N 54°20' E 009°57'7 7.0
2016-Feb-07 11:34N 54°21' E 009°45'6 6.2
2016-Feb-07 10:32N 54°16' E 009°38'7 7.5
2016-Feb-07 09:33N 54°11' E 009°29'9 7.6
2016-Feb-07 08:22N 54°04' E 009°19'5 6.6
2016-Feb-07 07:33N 53°59' E 009°17'5 5.4
2016-Feb-07 06:33N 53°55' E 009°11'0 0.1
2016-Feb-07 05:31N 53°55' E 009°11'0 0.0
2016-Feb-07 04:31N 53°55' E 009°11'0 0.0
2016-Feb-07 03:31N 53°55' E 009°11'0 0.0
2016-Feb-07 02:31N 53°55' E 009°11'0 0.0
2016-Feb-07 01:31N 53°55' E 009°11'0 0.0
2016-Feb-07 00:28N 53°55' E 009°11'2 1.9
2016-Feb-06 23:33N 53°54' E 009°09'1 0.9
2016-Feb-06 22:33N 53°53' E 009°07'1 0.8
2016-Feb-06 21:33N 53°53' E 009°06'0 0.1
2016-Feb-06 20:33N 53°53' E 009°06'3 2.9
2016-Feb-06 19:33N 53°51' E 009°02'1211.9
2016-Feb-06 18:33N 53°53' E 008°42'1514.7
2016-Feb-06 17:33N 53°59' E 008°19'1212.5
2016-Feb-06 16:33N 53°58' E 007°58'1515.1
2016-Feb-06 15:33N 53°55' E 007°33'1414.3
2016-Feb-06 14:33N 53°51' E 007°09'1414.2
2016-Feb-06 13:33N 53°48' E 006°46'1413.9
2016-Feb-06 12:33N 53°45' E 006°23'1414.2
2016-Feb-06 11:33N 53°40' E 006°00'1514.6
2016-Feb-06 10:33N 53°36' E 005°37'1414.4
2016-Feb-06 09:33N 53°31' E 005°14'1414.3
2016-Feb-06 08:33N 53°26' E 004°51'1414.1
2016-Feb-06 07:32N 53°16' E 004°35'1414.6
2016-Feb-06 06:33N 53°03' E 004°24'1414.3
2016-Feb-06 05:33N 52°50' E 004°14'1514.6
2016-Feb-06 04:33N 52°39' E 003°58'1515.0
2016-Feb-06 03:32N 52°28' E 003°41'1515.3
2016-Feb-06 02:32N 52°18' E 003°23'1615.7
2016-Feb-06 01:32N 52°06' E 003°05'1616.0
2016-Feb-06 00:33N 51°54' E 002°48'1616.1
2016-Feb-05 23:32N 51°42' E 002°31'1616.2
2016-Feb-05 22:33N 51°30' E 002°15'1615.5
2016-Feb-05 21:33N 51°15' E 002°05'1717.4
2016-Feb-05 20:33N 51°05' E 001°43'1817.5
2016-Feb-05 19:31N 50°50' E 001°26'  
Track history (hours):
 
Tides and Currents Weather Stations Pressure Air Temp Water Temp Dewpoint Dewpoint Depression Visibility Wind Speed Wind Dir Waves Ship Positions

Hhl Rio De Janeiro

Last reported at 2016-Feb-08 20:08 UTC. Time now 2016-Feb-11 04:33 UTC.
Position N 57°13' E 017°38'.

Length 168 m; draft 8.2 m.

Type: Cargo ship. MMSI: 636092346.

Date/timePositionNaut miles runAvg speedWind from/ knotsBaromVisibWave heightAir tempDewpointWater temp
2016-Feb-08 20:08N 57°13' E 017°38'11911.3
2016-Feb-08 09:33N 55°40' E 015°24'1212.3
2016-Feb-08 08:33N 55°34' E 015°05'1212.2
2016-Feb-08 07:33N 55°27' E 014°47'1212.2
2016-Feb-08 06:34N 55°18' E 014°32'1212.4
2016-Feb-08 05:34N 55°09' E 014°18'1211.8
2016-Feb-08 04:33N 55°00' E 014°04'1211.7
2016-Feb-08 03:33N 54°57' E 013°45'1312.6
2016-Feb-08 02:33N 54°52' E 013°24'2611.6
2016-Feb-08 00:18N 54°44' E 012°41'1212.2
2016-Feb-07 23:20N 54°37' E 012°24'911.5
2016-Feb-07 22:33N 54°30' E 012°15'1110.8
2016-Feb-07 21:33N 54°25' E 011°59'1211.9
2016-Feb-07 20:33N 54°27' E 011°39'1212.0
2016-Feb-07 19:33N 54°32' E 011°21'1111.3
2016-Feb-07 18:33N 54°35' E 011°02'1211.9
2016-Feb-07 17:33N 54°34' E 010°41'1010.4
2016-Feb-07 16:34N 54°31' E 010°24'1010.2
2016-Feb-07 15:33N 54°24' E 010°12'3 2.7
2016-Feb-07 14:33N 54°22' E 010°08'0 0.3
2016-Feb-07 13:33N 54°22' E 010°08'6 6.5
2016-Feb-07 12:33N 54°20' E 009°57'7 7.0
2016-Feb-07 11:34N 54°21' E 009°45'6 6.2
2016-Feb-07 10:32N 54°16' E 009°38'7 7.5
2016-Feb-07 09:33N 54°11' E 009°29'9 7.6
2016-Feb-07 08:22N 54°04' E 009°19'5 6.6
2016-Feb-07 07:33N 53°59' E 009°17'5 5.4
2016-Feb-07 06:33N 53°55' E 009°11'0 0.1
2016-Feb-07 05:31N 53°55' E 009°11'0 0.0
2016-Feb-07 04:31N 53°55' E 009°11'0 0.0
2016-Feb-07 03:31N 53°55' E 009°11'0 0.0
2016-Feb-07 02:31N 53°55' E 009°11'0 0.0
2016-Feb-07 01:31N 53°55' E 009°11'0 0.0
2016-Feb-07 00:28N 53°55' E 009°11'2 1.9
2016-Feb-06 23:33N 53°54' E 009°09'1 0.9
2016-Feb-06 22:33N 53°53' E 009°07'1 0.8
2016-Feb-06 21:33N 53°53' E 009°06'0 0.1
2016-Feb-06 20:33N 53°53' E 009°06'3 2.9
2016-Feb-06 19:33N 53°51' E 009°02'1211.9
2016-Feb-06 18:33N 53°53' E 008°42'1514.7
2016-Feb-06 17:33N 53°59' E 008°19'1212.5
2016-Feb-06 16:33N 53°58' E 007°58'1515.1
2016-Feb-06 15:33N 53°55' E 007°33'1414.3
2016-Feb-06 14:33N 53°51' E 007°09'1414.2
2016-Feb-06 13:33N 53°48' E 006°46'1413.9
2016-Feb-06 12:33N 53°45' E 006°23'1414.2
2016-Feb-06 11:33N 53°40' E 006°00'1514.6
2016-Feb-06 10:33N 53°36' E 005°37'1414.4
2016-Feb-06 09:33N 53°31' E 005°14'1414.3
2016-Feb-06 08:33N 53°26' E 004°51'1414.1
2016-Feb-06 07:32N 53°16' E 004°35'1414.6
2016-Feb-06 06:33N 53°03' E 004°24'1414.3
2016-Feb-06 05:33N 52°50' E 004°14'1514.6
2016-Feb-06 04:33N 52°39' E 003°58'1515.0
2016-Feb-06 03:32N 52°28' E 003°41'1515.3
2016-Feb-06 02:32N 52°18' E 003°23'1615.7
2016-Feb-06 01:32N 52°06' E 003°05'1616.0
2016-Feb-06 00:33N 51°54' E 002°48'1616.1
2016-Feb-05 23:32N 51°42' E 002°31'1616.2
2016-Feb-05 22:33N 51°30' E 002°15'1615.5
2016-Feb-05 21:33N 51°15' E 002°05'1717.4
2016-Feb-05 20:33N 51°05' E 001°43'1817.5
2016-Feb-05 19:31N 50°50' E 001°26'  

Dump ship's entire track history